createdAt,value
2023-10-20T00:00:45.337Z,16.11
2023-10-20T00:03:12.291Z,16.10
2023-10-20T00:05:39.279Z,16.07
2023-10-20T00:08:06.526Z,16.08
2023-10-20T00:10:40.919Z,16.08
2023-10-20T00:13:08.007Z,16.07
2023-10-20T00:15:35.977Z,16.08
2023-10-20T00:18:04.212Z,16.05
2023-10-20T00:20:31.121Z,16.07
2023-10-20T00:22:58.204Z,16.03
2023-10-20T00:25:25.059Z,16.04
2023-10-20T00:27:51.919Z,16.03
2023-10-20T00:30:18.739Z,16.02
2023-10-20T00:32:46.903Z,16.01
2023-10-20T00:35:15.351Z,16.01
2023-10-20T00:37:43.346Z,16.02
2023-10-20T00:40:11.665Z,16.03
2023-10-20T00:42:38.972Z,16.01
2023-10-20T00:45:07.018Z,16.01
2023-10-20T00:47:36.416Z,16.01
2023-10-20T00:50:06.055Z,16.01
2023-10-20T00:52:37.328Z,16.01
2023-10-20T00:55:05.042Z,16.01
2023-10-20T00:57:32.325Z,16.00
2023-10-20T00:59:59.136Z,16.03
2023-10-20T01:02:26.143Z,16.03
2023-10-20T01:04:53.172Z,16.01
2023-10-20T01:07:20.816Z,15.99
2023-10-20T01:09:47.598Z,15.99
2023-10-20T01:12:14.407Z,15.94
2023-10-20T01:14:41.754Z,15.99
2023-10-20T01:17:11.427Z,15.97
2023-10-20T01:19:38.733Z,15.98
2023-10-20T01:22:05.916Z,15.99
2023-10-20T01:24:32.993Z,15.98
2023-10-20T01:26:59.880Z,15.98
2023-10-20T01:29:26.790Z,15.96
2023-10-20T01:31:53.618Z,15.99
2023-10-20T01:34:20.571Z,15.95
2023-10-20T01:36:47.603Z,15.95
2023-10-20T01:39:16.925Z,15.94
2023-10-20T01:41:43.979Z,15.96
2023-10-20T01:44:10.826Z,15.94
2023-10-20T01:46:37.805Z,15.93
2023-10-20T01:49:04.741Z,15.94
2023-10-20T01:51:31.551Z,15.94
2023-10-20T01:53:58.577Z,15.93
2023-10-20T01:56:25.480Z,15.94
2023-10-20T01:58:52.308Z,15.91
2023-10-20T02:01:20.264Z,15.93
2023-10-20T02:03:48.671Z,15.90
2023-10-20T02:06:15.532Z,15.91
2023-10-20T02:08:42.286Z,15.91
2023-10-20T02:11:10.007Z,15.93
2023-10-20T02:13:38.369Z,15.93
2023-10-20T02:16:07.610Z,15.92
2023-10-20T02:18:34.516Z,15.91
2023-10-20T02:21:05.259Z,15.92
2023-10-20T02:23:33.097Z,15.93
2023-10-20T02:26:01.449Z,15.92
2023-10-20T02:28:28.624Z,15.90
2023-10-20T02:31:00.334Z,15.89
2023-10-20T02:33:27.263Z,15.90
2023-10-20T02:35:55.983Z,15.90
2023-10-20T02:38:22.802Z,15.90
2023-10-20T02:40:51.446Z,15.91
2023-10-20T02:43:18.352Z,15.92
2023-10-20T02:45:53.865Z,15.90
2023-10-20T02:48:21.679Z,15.91
2023-10-20T02:50:48.960Z,15.91
2023-10-20T02:53:16.493Z,15.88
2023-10-20T02:55:44.486Z,15.89
2023-10-20T02:58:12.027Z,15.88
2023-10-20T03:00:46.632Z,15.88
2023-10-20T03:03:15.333Z,15.91
2023-10-20T03:05:46.996Z,15.85
2023-10-20T03:08:14.372Z,15.85
2023-10-20T03:10:41.178Z,15.83
2023-10-20T03:13:08.039Z,15.82
2023-10-20T03:15:35.010Z,15.83
2023-10-20T03:18:02.011Z,15.82
2023-10-20T03:20:32.086Z,15.83
2023-10-20T03:22:59.842Z,15.86
2023-10-20T03:25:28.205Z,15.85
2023-10-20T03:27:54.965Z,15.82
2023-10-20T03:30:21.790Z,15.81
2023-10-20T03:32:51.889Z,15.83
2023-10-20T03:35:19.245Z,15.81
2023-10-20T03:37:46.226Z,15.81
2023-10-20T03:40:17.940Z,15.80
2023-10-20T03:42:44.873Z,15.80
2023-10-20T03:45:12.245Z,15.80
2023-10-20T03:47:42.239Z,15.83
2023-10-20T03:50:17.091Z,15.81
2023-10-20T03:52:48.234Z,15.81
2023-10-20T03:55:15.446Z,15.80
2023-10-20T03:57:46.029Z,15.78
2023-10-20T04:00:35.320Z,15.80
2023-10-20T04:03:02.178Z,15.74
2023-10-20T04:05:29.243Z,15.77
2023-10-20T04:07:56.061Z,15.75
2023-10-20T04:10:22.950Z,15.75
2023-10-20T04:12:50.043Z,15.73
2023-10-20T04:15:17.393Z,15.76
2023-10-20T04:17:53.420Z,15.73
2023-10-20T04:20:21.535Z,15.71
2023-10-20T04:22:52.311Z,15.73
2023-10-20T04:25:23.430Z,15.75
2023-10-20T04:27:52.521Z,15.74
2023-10-20T04:30:38.746Z,15.74
2023-10-20T04:33:25.421Z,15.75
2023-10-20T04:36:11.484Z,15.72
2023-10-20T04:38:56.838Z,15.76
2023-10-20T04:41:43.050Z,15.75
2023-10-20T04:44:16.304Z,15.74
2023-10-20T04:47:07.173Z,15.71
2023-10-20T04:49:59.783Z,15.73
2023-10-20T04:52:44.777Z,15.75
2023-10-20T04:55:11.576Z,15.69
2023-10-20T04:57:41.501Z,15.72
2023-10-20T05:00:11.777Z,15.73
2023-10-20T05:02:58.893Z,15.72
2023-10-20T05:05:26.545Z,15.69
2023-10-20T05:07:54.369Z,15.70
2023-10-20T05:10:22.091Z,15.70
2023-10-20T05:12:49.394Z,15.71
2023-10-20T05:15:16.494Z,15.73
2023-10-20T05:17:43.343Z,15.73
2023-10-20T05:20:14.647Z,15.72
2023-10-20T05:22:42.776Z,15.71
2023-10-20T05:25:10.941Z,15.71
2023-10-20T05:27:37.728Z,15.69
2023-10-20T05:30:05.560Z,15.69
2023-10-20T05:32:33.149Z,15.68
2023-10-20T05:35:00.466Z,15.67
2023-10-20T05:37:27.949Z,15.68
2023-10-20T05:39:54.783Z,15.69
2023-10-20T05:42:21.559Z,15.70
2023-10-20T05:45:04.864Z,15.69
2023-10-20T05:47:32.208Z,15.66
2023-10-20T05:50:00.710Z,15.66
2023-10-20T05:52:27.611Z,15.68
2023-10-20T05:54:57.246Z,15.68
2023-10-20T05:57:24.320Z,15.67
2023-10-20T05:59:51.864Z,15.69
2023-10-20T06:02:19.465Z,15.70
2023-10-20T06:04:46.243Z,15.68
2023-10-20T06:07:13.016Z,15.70
2023-10-20T06:09:40.923Z,15.71
2023-10-20T06:12:08.926Z,15.70
2023-10-20T06:14:37.667Z,15.70
2023-10-20T06:17:04.741Z,15.70
2023-10-20T06:19:32.911Z,15.73
2023-10-20T06:22:01.701Z,15.74
2023-10-20T06:24:29.374Z,15.72
2023-10-20T06:27:04.131Z,15.72
2023-10-20T06:29:34.740Z,15.72
2023-10-20T06:32:07.549Z,15.71
2023-10-20T06:34:41.996Z,15.71
2023-10-20T06:37:15.721Z,15.73
2023-10-20T06:39:43.005Z,15.76
2023-10-20T06:42:10.907Z,15.73
2023-10-20T06:44:37.745Z,15.76
2023-10-20T06:47:04.869Z,15.76
2023-10-20T06:49:33.766Z,15.78
2023-10-20T06:52:05.375Z,15.79
2023-10-20T06:54:32.501Z,15.78
2023-10-20T06:57:00.778Z,15.81
2023-10-20T06:59:27.713Z,15.81
2023-10-20T07:02:01.540Z,15.80
2023-10-20T07:04:29.016Z,15.80
2023-10-20T07:06:58.326Z,15.74
2023-10-20T07:09:25.691Z,15.77
2023-10-20T07:11:53.666Z,15.77
2023-10-20T07:14:20.563Z,15.88
2023-10-20T07:16:47.506Z,15.97
2023-10-20T07:19:14.574Z,16.00
2023-10-20T07:21:41.701Z,16.00
2023-10-20T07:24:09.262Z,15.92
2023-10-20T07:26:36.298Z,15.90
2023-10-20T07:29:03.730Z,15.86
2023-10-20T07:31:30.669Z,15.86
2023-10-20T07:33:57.631Z,15.86
2023-10-20T07:36:24.404Z,15.87
2023-10-20T07:38:51.409Z,15.87
2023-10-20T07:41:18.677Z,15.89
2023-10-20T07:43:45.585Z,15.91
2023-10-20T07:46:18.641Z,15.92
2023-10-20T07:48:46.395Z,15.90
2023-10-20T07:51:13.306Z,15.90
2023-10-20T07:53:40.280Z,15.91
2023-10-20T07:56:07.112Z,15.90
2023-10-20T07:58:34.535Z,15.89
2023-10-20T08:01:02.189Z,15.92
2023-10-20T08:03:29.636Z,15.89
2023-10-20T08:05:57.013Z,15.89
2023-10-20T08:08:24.324Z,15.88
2023-10-20T08:10:53.428Z,15.88
2023-10-20T08:13:20.434Z,15.89
2023-10-20T08:15:47.262Z,15.90
2023-10-20T08:18:14.363Z,15.93
2023-10-20T08:20:41.221Z,15.95
2023-10-20T08:23:08.192Z,15.95
2023-10-20T08:25:38.419Z,15.95
2023-10-20T08:28:06.332Z,15.95
2023-10-20T08:30:33.213Z,15.97
2023-10-20T08:33:00.849Z,15.99
2023-10-20T08:35:27.885Z,16.03
2023-10-20T08:37:54.775Z,16.02
2023-10-20T08:40:21.608Z,16.02
2023-10-20T08:42:50.012Z,16.01
2023-10-20T08:45:17.279Z,16.04
2023-10-20T08:47:44.634Z,16.03
2023-10-20T08:50:13.289Z,16.05
2023-10-20T08:52:41.054Z,16.05
2023-10-20T08:55:09.088Z,16.06
2023-10-20T08:57:35.890Z,16.06
2023-10-20T09:00:02.860Z,16.06
2023-10-20T09:02:39.923Z,16.07
2023-10-20T09:05:08.365Z,16.08
2023-10-20T09:07:35.613Z,16.09
2023-10-20T09:10:03.956Z,16.08
2023-10-20T09:12:33.000Z,16.13
2023-10-20T09:14:59.871Z,16.13
2023-10-20T09:17:27.266Z,16.13
2023-10-20T09:20:05.906Z,16.12
2023-10-20T09:22:32.649Z,16.14
2023-10-20T09:24:59.745Z,16.16
2023-10-20T09:27:27.084Z,16.15
2023-10-20T09:29:56.260Z,16.15
2023-10-20T09:32:23.213Z,16.18
2023-10-20T09:34:52.009Z,16.20
2023-10-20T09:37:24.645Z,16.22
2023-10-20T09:39:55.821Z,16.26
2023-10-20T09:42:25.943Z,16.27
2023-10-20T09:45:07.683Z,16.27
2023-10-20T09:47:38.134Z,16.26
2023-10-20T09:50:06.903Z,16.26
2023-10-20T09:52:34.597Z,16.28
2023-10-20T09:55:02.889Z,16.27
2023-10-20T09:57:30.179Z,16.28
2023-10-20T09:59:57.003Z,16.30
2023-10-20T10:02:31.286Z,16.34
2023-10-20T10:04:59.219Z,16.33
2023-10-20T10:07:35.428Z,16.36
2023-10-20T10:10:05.057Z,16.37
2023-10-20T10:12:34.442Z,16.36
2023-10-20T10:15:15.562Z,16.41
2023-10-20T10:17:53.264Z,16.41
2023-10-20T10:20:29.421Z,16.42
2023-10-20T10:23:12.396Z,16.43
2023-10-20T10:25:41.507Z,16.44
2023-10-20T10:28:14.933Z,16.47
2023-10-20T10:30:43.141Z,16.47
2023-10-20T10:33:12.477Z,16.47
2023-10-20T10:35:40.817Z,16.50
2023-10-20T10:38:22.457Z,16.51
2023-10-20T10:40:56.505Z,16.53
2023-10-20T10:43:23.505Z,16.57
2023-10-20T10:45:54.759Z,16.56
2023-10-20T10:48:25.971Z,16.58
2023-10-20T10:50:52.910Z,16.61
2023-10-20T10:53:19.741Z,16.62
2023-10-20T10:55:46.753Z,16.65
2023-10-20T10:58:15.237Z,16.66
2023-10-20T11:00:46.868Z,16.67
2023-10-20T11:03:17.312Z,16.69
2023-10-20T11:05:44.634Z,16.70
2023-10-20T11:08:13.991Z,16.72
2023-10-20T11:10:47.487Z,16.70
2023-10-20T11:13:17.662Z,16.73
2023-10-20T11:15:48.024Z,16.73
2023-10-20T11:18:14.969Z,16.73
2023-10-20T11:20:43.459Z,16.74
2023-10-20T11:23:12.609Z,16.76
2023-10-20T11:25:42.057Z,16.78
2023-10-20T11:28:09.302Z,16.81
2023-10-20T11:30:40.455Z,16.84
2023-10-20T11:33:07.556Z,16.84
2023-10-20T11:35:34.753Z,16.86
2023-10-20T11:38:02.372Z,16.88
2023-10-20T11:40:30.121Z,16.90
2023-10-20T11:42:57.593Z,16.89
2023-10-20T11:45:24.939Z,16.91
2023-10-20T11:47:52.977Z,16.91
2023-10-20T11:50:20.872Z,16.92
2023-10-20T11:52:48.713Z,16.94
2023-10-20T11:55:15.570Z,16.97
2023-10-20T11:57:42.887Z,16.95
2023-10-20T12:00:11.352Z,16.99
2023-10-20T12:02:39.842Z,17.01
2023-10-20T12:05:07.752Z,17.02
2023-10-20T12:07:34.896Z,17.06
2023-10-20T12:10:08.411Z,17.11
2023-10-20T12:12:40.286Z,17.11
2023-10-20T12:15:09.179Z,17.15
2023-10-20T12:17:36.574Z,17.15
2023-10-20T12:20:04.176Z,17.16
2023-10-20T12:22:30.922Z,17.18
2023-10-20T12:24:57.718Z,17.20
2023-10-20T12:27:24.673Z,17.18
2023-10-20T12:29:51.425Z,17.21
2023-10-20T12:32:18.676Z,17.21
2023-10-20T12:34:45.921Z,17.23
2023-10-20T12:37:12.745Z,17.24
2023-10-20T12:39:41.666Z,17.25
2023-10-20T12:42:09.006Z,17.26
2023-10-20T12:44:36.528Z,17.26
2023-10-20T12:47:04.125Z,17.28
2023-10-20T12:49:33.111Z,17.29
2023-10-20T12:52:03.568Z,17.32
2023-10-20T12:54:30.650Z,17.30
2023-10-20T12:57:00.192Z,17.31
2023-10-20T12:59:27.328Z,17.32
2023-10-20T13:01:54.544Z,17.32
2023-10-20T13:04:21.661Z,17.35
2023-10-20T13:06:59.941Z,17.35
2023-10-20T13:09:27.970Z,17.34
2023-10-20T13:11:54.899Z,17.38
2023-10-20T13:14:21.811Z,17.40
2023-10-20T13:16:48.752Z,17.40
2023-10-20T13:19:16.787Z,17.40
2023-10-20T13:21:44.316Z,17.44
2023-10-20T13:24:11.388Z,17.43
2023-10-20T13:26:38.900Z,17.42
2023-10-20T13:29:05.991Z,17.43
2023-10-20T13:31:35.351Z,17.45
2023-10-20T13:34:03.899Z,17.46
2023-10-20T13:36:30.872Z,17.48
2023-10-20T13:38:57.730Z,17.49
2023-10-20T13:41:27.394Z,17.50
2023-10-20T13:43:54.169Z,17.50
2023-10-20T13:46:20.996Z,17.51
2023-10-20T13:48:48.674Z,17.53
2023-10-20T13:51:16.129Z,17.51
2023-10-20T13:53:43.356Z,17.53
2023-10-20T13:56:10.338Z,17.53
2023-10-20T13:58:37.153Z,17.54
2023-10-20T14:01:04.255Z,17.54
2023-10-20T14:03:31.345Z,17.54
2023-10-20T14:05:58.677Z,17.57
2023-10-20T14:08:26.062Z,17.57
2023-10-20T14:10:54.838Z,17.57
2023-10-20T14:13:22.088Z,17.58
2023-10-20T14:15:50.990Z,17.59
2023-10-20T14:20:45.051Z,17.63
2023-10-20T14:23:11.946Z,17.63
2023-10-20T14:25:38.704Z,17.63
2023-10-20T14:28:07.170Z,17.63
2023-10-20T14:30:34.344Z,17.64
2023-10-20T14:33:01.427Z,17.64
2023-10-20T14:35:28.493Z,17.64
2023-10-20T14:37:57.480Z,17.65
2023-10-20T14:40:24.412Z,17.63
2023-10-20T14:42:51.307Z,17.64
2023-10-20T14:45:18.482Z,17.66
2023-10-20T14:47:45.427Z,17.67
2023-10-20T14:50:12.399Z,17.67
2023-10-20T14:52:41.411Z,17.67
2023-10-20T14:55:10.705Z,17.68
2023-10-20T14:57:37.813Z,17.68
2023-10-20T15:00:11.530Z,17.69
2023-10-20T15:02:40.184Z,17.69
2023-10-20T15:05:08.018Z,17.70
2023-10-20T15:07:38.043Z,17.71
2023-10-20T15:10:05.526Z,17.72
2023-10-20T15:12:32.919Z,17.73
2023-10-20T15:15:01.100Z,17.74
2023-10-20T15:17:28.210Z,17.74
2023-10-20T15:19:55.418Z,17.74
2023-10-20T15:22:22.412Z,17.76
2023-10-20T15:24:50.106Z,17.76
2023-10-20T15:27:19.646Z,17.78
2023-10-20T15:29:47.822Z,17.82
2023-10-20T15:32:16.809Z,17.81
2023-10-20T15:34:43.737Z,17.79
2023-10-20T15:37:10.625Z,17.80
2023-10-20T15:39:49.275Z,17.81
2023-10-20T15:42:25.050Z,17.82
2023-10-20T15:44:52.088Z,17.83
2023-10-20T15:47:19.047Z,17.82
2023-10-20T15:49:45.948Z,17.82
2023-10-20T15:52:13.266Z,17.81
2023-10-20T15:54:40.198Z,17.82
2023-10-20T15:57:07.482Z,17.82
2023-10-20T15:59:34.577Z,17.82
2023-10-20T16:02:01.730Z,17.82
2023-10-20T16:04:28.706Z,17.82
2023-10-20T16:06:55.604Z,17.82
2023-10-20T16:09:22.449Z,17.83
2023-10-20T16:11:49.441Z,17.83
2023-10-20T16:14:16.598Z,17.82
2023-10-20T16:16:43.478Z,17.83
2023-10-20T16:19:11.837Z,17.83
2023-10-20T16:21:39.002Z,17.82
2023-10-20T16:24:06.711Z,17.82
2023-10-20T16:26:33.803Z,17.82
2023-10-20T16:29:00.647Z,17.84
2023-10-20T16:31:27.576Z,17.83
2023-10-20T16:33:54.801Z,17.84
2023-10-20T16:36:21.970Z,17.83
2023-10-20T16:38:48.834Z,17.83
2023-10-20T16:41:15.723Z,17.83
2023-10-20T16:43:42.559Z,17.83
2023-10-20T16:46:09.404Z,17.82
2023-10-20T16:48:36.358Z,17.82
2023-10-20T16:51:03.415Z,17.82
2023-10-20T16:53:30.432Z,17.82
2023-10-20T16:56:00.916Z,17.82
2023-10-20T16:58:28.642Z,17.83
2023-10-20T17:01:05.792Z,17.82
2023-10-20T17:03:34.805Z,17.82
2023-10-20T17:06:06.139Z,17.83
2023-10-20T17:08:33.544Z,17.83
2023-10-20T17:11:06.513Z,17.82
2023-10-20T17:13:33.704Z,17.83
2023-10-20T17:16:08.256Z,17.84
2023-10-20T17:18:35.505Z,17.84
2023-10-20T17:21:09.972Z,17.85
2023-10-20T17:23:37.764Z,17.84
2023-10-20T17:26:06.576Z,17.83
2023-10-20T17:28:34.192Z,17.84
2023-10-20T17:31:03.945Z,17.86
2023-10-20T17:33:31.432Z,17.86
2023-10-20T17:36:14.136Z,17.86
2023-10-20T17:38:41.314Z,17.87
2023-10-20T17:41:09.136Z,17.85
2023-10-20T17:43:37.578Z,17.87
2023-10-20T17:46:06.033Z,17.87
2023-10-20T17:48:33.598Z,17.88
2023-10-20T17:51:01.649Z,17.89
2023-10-20T17:53:29.086Z,17.86
2023-10-20T17:55:55.880Z,17.85
2023-10-20T17:58:23.044Z,17.83
2023-10-20T18:00:51.974Z,17.83
2023-10-20T18:03:19.768Z,17.85
2023-10-20T18:05:47.426Z,17.84
2023-10-20T18:08:15.590Z,17.85
2023-10-20T18:10:42.849Z,17.85
2023-10-20T18:13:09.773Z,17.85
2023-10-20T18:15:37.641Z,17.84
2023-10-20T18:18:05.307Z,17.84
2023-10-20T18:20:32.245Z,17.84
2023-10-20T18:23:00.190Z,17.84
2023-10-20T18:25:28.912Z,17.83
2023-10-20T18:27:55.902Z,17.83
2023-10-20T18:30:22.963Z,17.82
2023-10-20T18:32:51.283Z,17.82
2023-10-20T18:35:18.157Z,17.82
2023-10-20T18:37:44.992Z,17.81
2023-10-20T18:40:12.037Z,17.81
2023-10-20T18:42:39.925Z,17.81
2023-10-20T18:45:07.166Z,17.80
2023-10-20T18:47:34.042Z,17.81
2023-10-20T18:50:01.273Z,17.82
2023-10-20T18:52:28.338Z,17.79
2023-10-20T18:54:55.175Z,17.79
2023-10-20T18:57:21.960Z,17.79
2023-10-20T18:59:48.791Z,17.78
2023-10-20T19:02:15.651Z,17.78
2023-10-20T19:04:42.438Z,17.77
2023-10-20T19:07:11.432Z,17.76
2023-10-20T19:09:42.006Z,17.78
2023-10-20T19:12:10.192Z,17.77
2023-10-20T19:14:36.977Z,17.77
2023-10-20T19:17:03.930Z,17.74
2023-10-20T19:19:30.686Z,17.76
2023-10-20T19:21:57.462Z,17.75
2023-10-20T19:24:25.299Z,17.77
2023-10-20T19:26:52.560Z,17.75
2023-10-20T19:29:22.129Z,17.74
2023-10-20T19:31:49.053Z,17.73
2023-10-20T19:34:15.976Z,17.74
2023-10-20T19:36:42.793Z,17.72
2023-10-20T19:39:10.768Z,17.71
2023-10-20T19:41:38.500Z,17.69
2023-10-20T19:44:05.373Z,17.70
2023-10-20T19:46:32.425Z,17.68
2023-10-20T19:49:00.184Z,17.67
2023-10-20T19:51:27.288Z,17.67
2023-10-20T19:53:54.148Z,17.67
2023-10-20T19:56:21.006Z,17.66
2023-10-20T19:58:47.797Z,17.65
2023-10-20T20:01:14.912Z,17.65
2023-10-20T20:03:43.086Z,17.65
2023-10-20T20:06:13.716Z,17.63
2023-10-20T20:08:41.541Z,17.61
2023-10-20T20:11:09.131Z,17.61
2023-10-20T20:13:36.220Z,17.60
2023-10-20T20:16:06.414Z,17.60
2023-10-20T20:18:33.967Z,17.61
2023-10-20T20:21:01.016Z,17.58
2023-10-20T20:23:27.863Z,17.58
2023-10-20T20:25:54.601Z,17.56
2023-10-20T20:28:21.368Z,17.57
2023-10-20T20:30:48.181Z,17.57
2023-10-20T20:33:15.302Z,17.57
2023-10-20T20:35:42.322Z,17.54
2023-10-20T20:38:09.330Z,17.53
2023-10-20T20:40:38.192Z,17.54
2023-10-20T20:43:05.778Z,17.54
2023-10-20T20:45:35.828Z,17.53
2023-10-20T20:48:05.837Z,17.51
2023-10-20T20:50:33.901Z,17.50
2023-10-20T20:53:04.228Z,17.50
2023-10-20T20:55:35.588Z,17.51
2023-10-20T20:58:02.504Z,17.50
2023-10-20T21:00:29.386Z,17.51
2023-10-20T21:02:56.599Z,17.49
2023-10-20T21:05:23.669Z,17.49
2023-10-20T21:07:50.554Z,17.49
2023-10-20T21:10:18.232Z,17.50
2023-10-20T21:12:45.039Z,17.49
2023-10-20T21:15:14.135Z,17.47
2023-10-20T21:17:41.131Z,17.47
2023-10-20T21:20:08.446Z,17.49
2023-10-20T21:22:35.229Z,17.45
2023-10-20T21:25:02.410Z,17.46
2023-10-20T21:27:29.518Z,17.47
2023-10-20T21:29:56.334Z,17.46
2023-10-20T21:32:23.245Z,17.45
2023-10-20T21:34:50.417Z,17.45
2023-10-20T21:37:18.931Z,17.46
2023-10-20T21:39:46.089Z,17.43
2023-10-20T21:42:12.895Z,17.40
2023-10-20T21:44:39.718Z,17.43
2023-10-20T21:47:07.384Z,17.41
2023-10-20T21:49:34.572Z,17.40
2023-10-20T21:52:02.129Z,17.41
2023-10-20T21:54:28.922Z,17.38
2023-10-20T21:56:55.780Z,17.39
2023-10-20T21:59:23.201Z,17.38
2023-10-20T22:02:08.389Z,17.37
2023-10-20T22:04:36.308Z,17.38
2023-10-20T22:07:03.281Z,17.37
2023-10-20T22:09:38.397Z,17.36
2023-10-20T22:12:13.031Z,17.35
2023-10-20T22:14:39.880Z,17.32
2023-10-20T22:17:06.772Z,17.34
2023-10-20T22:19:33.789Z,17.35
2023-10-20T22:22:00.722Z,17.37
2023-10-20T22:24:27.510Z,17.39
2023-10-20T22:26:54.276Z,17.38
2023-10-20T22:29:21.495Z,17.37
2023-10-20T22:31:49.628Z,17.37
2023-10-20T22:34:16.418Z,17.35
2023-10-20T22:36:43.232Z,17.34
2023-10-20T22:39:10.091Z,17.35
2023-10-20T22:41:37.024Z,17.33
2023-10-20T22:44:04.043Z,17.32
2023-10-20T22:46:30.867Z,17.31
2023-10-20T22:48:57.684Z,17.30
2023-10-20T22:51:24.507Z,17.31
2023-10-20T22:53:51.309Z,17.29
2023-10-20T22:56:18.156Z,17.29
2023-10-20T22:58:45.071Z,17.28
2023-10-20T23:01:11.914Z,17.27
2023-10-20T23:03:38.891Z,17.27
2023-10-20T23:06:05.881Z,17.26
2023-10-20T23:08:33.218Z,17.24
2023-10-20T23:11:00.182Z,17.24
2023-10-20T23:13:26.951Z,17.23
2023-10-20T23:15:53.768Z,17.22
2023-10-20T23:18:20.652Z,17.21
2023-10-20T23:20:47.633Z,17.20
2023-10-20T23:23:14.733Z,17.20
2023-10-20T23:25:41.468Z,17.20
2023-10-20T23:28:08.308Z,17.19
2023-10-20T23:30:35.492Z,17.20
2023-10-20T23:33:02.422Z,17.19
2023-10-20T23:35:29.293Z,17.19
2023-10-20T23:37:56.079Z,17.19
2023-10-20T23:40:23.057Z,17.19
2023-10-20T23:42:49.915Z,17.17
2023-10-20T23:45:16.798Z,17.16
2023-10-20T23:47:43.741Z,17.17
2023-10-20T23:50:10.689Z,17.16
2023-10-20T23:52:37.512Z,17.16
2023-10-20T23:55:07.443Z,17.16
2023-10-20T23:57:34.293Z,17.15
